sensor_id;sensor_type;location;lat;lon;timestamp;pressure;altitude;pressure_sealevel;temperature;humidity
67818;BME280;54614;47.576;7.524;2023-09-12T00:00:35;98131.13;;;27.00;53.33
67818;BME280;54614;47.576;7.524;2023-09-12T00:03:01;98138.63;;;26.98;53.33
67818;BME280;54614;47.576;7.524;2023-09-12T00:05:27;98135.94;;;26.98;53.35
67818;BME280;54614;47.576;7.524;2023-09-12T00:07:53;98132.63;;;26.95;53.29
67818;BME280;54614;47.576;7.524;2023-09-12T00:10:19;98134.25;;;26.96;53.24
67818;BME280;54614;47.576;7.524;2023-09-12T00:12:46;98136.38;;;26.94;53.31
67818;BME280;54614;47.576;7.524;2023-09-12T00:15:12;98142.34;;;26.96;53.21
67818;BME280;54614;47.576;7.524;2023-09-12T00:17:38;98142.34;;;26.96;53.10
67818;BME280;54614;47.576;7.524;2023-09-12T00:20:05;98137.19;;;26.95;53.32
67818;BME280;54614;47.576;7.524;2023-09-12T00:22:33;98133.69;;;26.94;53.36
67818;BME280;54614;47.576;7.524;2023-09-12T00:24:59;98134.75;;;26.93;53.22
67818;BME280;54614;47.576;7.524;2023-09-12T00:27:25;98128.88;;;26.96;53.00
67818;BME280;54614;47.576;7.524;2023-09-12T00:29:51;98129.34;;;26.93;53.32
67818;BME280;54614;47.576;7.524;2023-09-12T00:32:17;98137.69;;;26.92;53.37
67818;BME280;54614;47.576;7.524;2023-09-12T00:34:43;98132.03;;;26.93;53.26
67818;BME280;54614;47.576;7.524;2023-09-12T00:37:09;98132.63;;;26.95;53.13
67818;BME280;54614;47.576;7.524;2023-09-12T00:39:36;98143.66;;;26.94;53.19
67818;BME280;54614;47.576;7.524;2023-09-12T00:42:02;98133.91;;;26.93;53.19
67818;BME280;54614;47.576;7.524;2023-09-12T00:44:28;98136.63;;;26.93;53.35
67818;BME280;54614;47.576;7.524;2023-09-12T00:46:55;98133.09;;;26.92;53.07
67818;BME280;54614;47.576;7.524;2023-09-12T00:49:21;98136.63;;;26.93;53.04
67818;BME280;54614;47.576;7.524;2023-09-12T00:51:49;98134.97;;;26.92;53.11
67818;BME280;54614;47.576;7.524;2023-09-12T00:54:16;98133.34;;;26.91;53.22
67818;BME280;54614;47.576;7.524;2023-09-12T00:56:43;98138.72;;;26.91;53.18
67818;BME280;54614;47.576;7.524;2023-09-12T00:59:09;98133.09;;;26.92;53.08
67818;BME280;54614;47.576;7.524;2023-09-12T01:01:36;98131.22;;;26.93;53.26
67818;BME280;54614;47.576;7.524;2023-09-12T01:04:03;98123.34;;;26.91;53.02
67818;BME280;54614;47.576;7.524;2023-09-12T01:06:29;98118.53;;;26.93;53.17
67818;BME280;54614;47.576;7.524;2023-09-12T01:08:57;98125.47;;;26.89;53.04
67818;BME280;54614;47.576;7.524;2023-09-12T01:11:24;98119.03;;;26.90;53.18
67818;BME280;54614;47.576;7.524;2023-09-12T01:13:51;98123.34;;;26.91;53.18
67818;BME280;54614;47.576;7.524;2023-09-12T01:16:17;98121.47;;;26.92;53.09
67818;BME280;54614;47.576;7.524;2023-09-12T01:18:43;98122.78;;;26.89;53.08
67818;BME280;54614;47.576;7.524;2023-09-12T01:24:33;98126.88;;;26.92;53.02
67818;BME280;54614;47.576;7.524;2023-09-12T01:27:28;98131.47;;;26.91;53.04
67818;BME280;54614;47.576;7.524;2023-09-12T01:30:02;98130.88;;;26.89;53.24
67818;BME280;54614;47.576;7.524;2023-09-12T01:32:31;98137.09;;;26.90;53.11
67818;BME280;54614;47.576;7.524;2023-09-12T01:34:57;98128.19;;;26.89;52.99
67818;BME280;54614;47.576;7.524;2023-09-12T01:37:23;98124.41;;;26.90;53.03
67818;BME280;54614;47.576;7.524;2023-09-12T01:39:50;98128.19;;;26.89;53.15
67818;BME280;54614;47.576;7.524;2023-09-12T01:42:20;98130.06;;;26.89;53.05
67818;BME280;54614;47.576;7.524;2023-09-12T01:44:49;98129.22;;;26.88;53.15
67818;BME280;54614;47.576;7.524;2023-09-12T01:47:16;98130.06;;;26.89;52.95
67818;BME280;54614;47.576;7.524;2023-09-12T01:49:47;98135.44;;;26.89;53.02
67818;BME280;54614;47.576;7.524;2023-09-12T01:52:14;98129.22;;;26.88;52.95
67818;BME280;54614;47.576;7.524;2023-09-12T01:54:41;98126.78;;;26.87;53.13
67818;BME280;54614;47.576;7.524;2023-09-12T01:57:08;98124.91;;;26.87;53.07
67818;BME280;54614;47.576;7.524;2023-09-12T01:59:35;98126.53;;;26.88;53.11
67818;BME280;54614;47.576;7.524;2023-09-12T02:02:01;98131.13;;;26.88;52.97
67818;BME280;54614;47.576;7.524;2023-09-12T02:04:28;98133.00;;;26.87;53.05
67818;BME280;54614;47.576;7.524;2023-09-12T02:06:54;98136.75;;;26.86;53.21
67818;BME280;54614;47.576;7.524;2023-09-12T02:09:20;98141.09;;;26.87;52.99
67818;BME280;54614;47.576;7.524;2023-09-12T02:11:48;98136.75;;;26.86;53.12
67818;BME280;54614;47.576;7.524;2023-09-12T02:14:14;98141.91;;;26.88;52.99
67818;BME280;54614;47.576;7.524;2023-09-12T02:16:40;98141.66;;;26.89;53.05
67818;BME280;54614;47.576;7.524;2023-09-12T02:19:06;98133.00;;;26.87;53.11
67818;BME280;54614;47.576;7.524;2023-09-12T02:21:33;98138.63;;;26.86;52.98
67818;BME280;54614;47.576;7.524;2023-09-12T02:23:59;98134.03;;;26.86;53.10
67818;BME280;54614;47.576;7.524;2023-09-12T02:26:25;98140.50;;;26.85;53.10
67818;BME280;54614;47.576;7.524;2023-09-12T02:28:51;98139.44;;;26.86;52.95
67818;BME280;54614;47.576;7.524;2023-09-12T02:31:17;98145.91;;;26.85;52.99
67818;BME280;54614;47.576;7.524;2023-09-12T02:33:43;98151.31;;;26.85;53.04
67818;BME280;54614;47.576;7.524;2023-09-12T02:36:15;98154.81;;;26.86;52.96
67818;BME280;54614;47.576;7.524;2023-09-12T02:38:46;98158.56;;;26.85;53.03
67818;BME280;54614;47.576;7.524;2023-09-12T02:41:19;98152.34;;;26.84;52.97
67818;BME280;54614;47.576;7.524;2023-09-12T02:44:01;98147.53;;;26.86;52.95
67818;BME280;54614;47.576;7.524;2023-09-12T02:46:45;98141.56;;;26.84;53.17
67818;BME280;54614;47.576;7.524;2023-09-12T02:49:53;98144.25;;;26.84;53.08
67818;BME280;54614;47.576;7.524;2023-09-12T02:53:01;98138.88;;;26.84;53.14
67818;BME280;54614;47.576;7.524;2023-09-12T02:56:12;98132.66;;;26.84;52.97
67818;BME280;54614;47.576;7.524;2023-09-12T02:59:24;98126.44;;;26.83;52.96
67818;BME280;54614;47.576;7.524;2023-09-12T03:01:53;98129.94;;;26.84;53.00
67818;BME280;54614;47.576;7.524;2023-09-12T03:04:19;98126.44;;;26.83;52.93
67818;BME280;54614;47.576;7.524;2023-09-12T03:06:45;98134.53;;;26.83;52.99
67818;BME280;54614;47.576;7.524;2023-09-12T03:09:12;98134.28;;;26.85;52.94
67818;BME280;54614;47.576;7.524;2023-09-12T03:11:39;98135.09;;;26.85;52.94
67818;BME280;54614;47.576;7.524;2023-09-12T03:14:05;98133.47;;;26.84;53.00
67818;BME280;54614;47.576;7.524;2023-09-12T03:16:31;98136.41;;;26.83;52.70
67818;BME280;54614;47.576;7.524;2023-09-12T03:18:57;98141.78;;;26.83;53.04
67818;BME280;54614;47.576;7.524;2023-09-12T03:21:23;98136.16;;;26.84;52.95
67818;BME280;54614;47.576;7.524;2023-09-12T03:23:50;98134.28;;;26.85;52.72
67818;BME280;54614;47.576;7.524;2023-09-12T03:26:16;98127.47;;;26.82;52.94
67818;BME280;54614;47.576;7.524;2023-09-12T03:28:42;98122.91;;;26.83;52.76
67818;BME280;54614;47.576;7.524;2023-09-12T03:31:12;98125.38;;;26.84;52.83
67818;BME280;54614;47.576;7.524;2023-09-12T03:34:01;98122.91;;;26.83;52.87
67818;BME280;54614;47.576;7.524;2023-09-12T03:36:28;98125.59;;;26.83;52.71
67818;BME280;54614;47.576;7.524;2023-09-12T03:38:54;98119.63;;;26.81;52.72
67818;BME280;54614;47.576;7.524;2023-09-12T03:41:20;98120.44;;;26.81;52.80
67818;BME280;54614;47.576;7.524;2023-09-12T03:43:54;98113.41;;;26.80;52.70
67818;BME280;54614;47.576;7.524;2023-09-12T03:46:21;98110.34;;;26.88;52.45
67818;BME280;54614;47.576;7.524;2023-09-12T03:48:47;98110.81;;;26.85;52.35
67818;BME280;54614;47.576;7.524;2023-09-12T03:51:14;98115.88;;;26.82;52.72
67818;BME280;54614;47.576;7.524;2023-09-12T03:53:40;98112.34;;;26.81;52.74
67818;BME280;54614;47.576;7.524;2023-09-12T03:56:07;98111.53;;;26.81;52.67
67818;BME280;54614;47.576;7.524;2023-09-12T03:58:34;98115.88;;;26.82;52.70
67818;BME280;54614;47.576;7.524;2023-09-12T04:01:00;98118.81;;;26.80;52.74
67818;BME280;54614;47.576;7.524;2023-09-12T04:03:26;98119.28;;;26.77;52.60
67818;BME280;54614;47.576;7.524;2023-09-12T04:05:52;98124.19;;;26.80;52.57
67818;BME280;54614;47.576;7.524;2023-09-12T04:08:18;98123.38;;;26.80;52.81
67818;BME280;54614;47.576;7.524;2023-09-12T04:10:45;98122.81;;;26.78;52.66
67818;BME280;54614;47.576;7.524;2023-09-12T04:13:11;98130.06;;;26.77;52.79
67818;BME280;54614;47.576;7.524;2023-09-12T04:15:37;98126.78;;;26.75;52.75
67818;BME280;54614;47.576;7.524;2023-09-12T04:18:03;98121.41;;;26.75;52.61
67818;BME280;54614;47.576;7.524;2023-09-12T04:20:30;98118.47;;;26.77;52.59
67818;BME280;54614;47.576;7.524;2023-09-12T04:23:01;98126.56;;;26.77;52.62
67818;BME280;54614;47.576;7.524;2023-09-12T04:25:36;98123.03;;;26.76;52.47
67818;BME280;54614;47.576;7.524;2023-09-12T04:28:09;98124.56;;;26.72;52.61
67818;BME280;54614;47.576;7.524;2023-09-12T04:30:43;98129.50;;;26.75;52.56
67818;BME280;54614;47.576;7.524;2023-09-12T04:33:21;98133.00;;;26.76;52.46
67818;BME280;54614;47.576;7.524;2023-09-12T04:36:01;98121.41;;;26.75;52.25
67818;BME280;54614;47.576;7.524;2023-09-12T04:38:42;98120.56;;;26.75;52.38
67818;BME280;54614;47.576;7.524;2023-09-12T04:41:22;98123.03;;;26.76;52.34
67818;BME280;54614;47.576;7.524;2023-09-12T04:44:02;98124.69;;;26.77;52.19
67818;BME280;54614;47.576;7.524;2023-09-12T04:46:44;98133.84;;;26.76;52.25
67818;BME280;54614;47.576;7.524;2023-09-12T04:49:26;98132.19;;;26.75;52.34
67818;BME280;54614;47.576;7.524;2023-09-12T04:52:11;98124.69;;;26.77;52.26
67818;BME280;54614;47.576;7.524;2023-09-12T04:54:48;98127.72;;;26.81;52.08
67818;BME280;54614;47.576;7.524;2023-09-12T04:57:20;98135.34;;;26.72;51.29
67818;BME280;54614;47.576;7.524;2023-09-12T04:59:50;98135.59;;;26.47;50.57
67818;BME280;54614;47.576;7.524;2023-09-12T05:02:22;98141.09;;;26.29;50.38
67818;BME280;54614;47.576;7.524;2023-09-12T05:05:04;98142.22;;;26.10;50.51
67818;BME280;54614;47.576;7.524;2023-09-12T05:08:10;98150.31;;;25.50;51.09
67818;BME280;54614;47.576;7.524;2023-09-12T05:11:17;98155.22;;;25.23;51.50
67818;BME280;54614;47.576;7.524;2023-09-12T05:14:25;98164.63;;;25.32;51.40
67818;BME280;54614;47.576;7.524;2023-09-12T05:17:33;98170.84;;;25.14;51.70
67818;BME280;54614;47.576;7.524;2023-09-12T05:20:42;98168.06;;;24.84;52.76
67818;BME280;54614;47.576;7.524;2023-09-12T05:23:08;98175.84;;;24.24;53.95
67818;BME280;54614;47.576;7.524;2023-09-12T05:25:35;98177.06;;;24.28;54.40
67818;BME280;54614;47.576;7.524;2023-09-12T05:28:01;98169.72;;;24.42;53.68
67818;BME280;54614;47.576;7.524;2023-09-12T05:30:27;98176.31;;;24.15;54.81
67818;BME280;54614;47.576;7.524;2023-09-12T05:32:53;98173.56;;;24.28;54.12
67818;BME280;54614;47.576;7.524;2023-09-12T05:35:19;98176.34;;;24.39;54.36
67818;BME280;54614;47.576;7.524;2023-09-12T05:37:45;98172.03;;;24.38;54.36
67818;BME280;54614;47.576;7.524;2023-09-12T05:40:11;98175.81;;;23.99;54.98
67818;BME280;54614;47.576;7.524;2023-09-12T05:42:37;98176.03;;;23.98;55.95
67818;BME280;54614;47.576;7.524;2023-09-12T05:45:05;98183.66;;;24.01;57.82
67818;BME280;54614;47.576;7.524;2023-09-12T05:47:31;98180.88;;;24.14;57.51
67818;BME280;54614;47.576;7.524;2023-09-12T05:49:58;98184.72;;;24.25;56.55
67818;BME280;54614;47.576;7.524;2023-09-12T05:52:25;98182.69;;;24.20;56.40
67818;BME280;54614;47.576;7.524;2023-09-12T05:54:51;98190.31;;;24.23;55.60
67818;BME280;54614;47.576;7.524;2023-09-12T05:57:17;98181.69;;;24.15;56.00
67818;BME280;54614;47.576;7.524;2023-09-12T05:59:46;98184.69;;;24.31;55.25
67818;BME280;54614;47.576;7.524;2023-09-12T06:02:13;98179.44;;;24.43;54.80
67818;BME280;54614;47.576;7.524;2023-09-12T06:04:39;98182.88;;;24.50;55.11
67818;BME280;54614;47.576;7.524;2023-09-12T06:07:06;98183.03;;;24.30;55.19
67818;BME280;54614;47.576;7.524;2023-09-12T06:09:32;98186.34;;;24.26;55.57
67818;BME280;54614;47.576;7.524;2023-09-12T06:11:58;98183.28;;;24.22;55.55
67818;BME280;54614;47.576;7.524;2023-09-12T06:14:24;98184.91;;;24.30;55.13
67818;BME280;54614;47.576;7.524;2023-09-12T06:16:50;98182.66;;;24.27;55.31
67818;BME280;54614;47.576;7.524;2023-09-12T06:19:16;98182.53;;;24.15;55.70
67818;BME280;54614;47.576;7.524;2023-09-12T06:21:43;98187.06;;;24.15;55.76
67818;BME280;54614;47.576;7.524;2023-09-12T06:24:16;98186.19;;;24.27;55.55
67818;BME280;54614;47.576;7.524;2023-09-12T06:26:43;98182.19;;;24.05;56.07
67818;BME280;54614;47.576;7.524;2023-09-12T06:29:09;98184.63;;;23.82;56.55
67818;BME280;54614;47.576;7.524;2023-09-12T06:31:35;98187.94;;;24.08;55.91
67818;BME280;54614;47.576;7.524;2023-09-12T06:34:02;98190.16;;;24.18;55.69
67818;BME280;54614;47.576;7.524;2023-09-12T06:36:28;98185.97;;;24.22;55.74
67818;BME280;54614;47.576;7.524;2023-09-12T06:38:58;98192.84;;;24.18;55.53
67818;BME280;54614;47.576;7.524;2023-09-12T06:41:25;98201.94;;;24.17;57.67
67818;BME280;54614;47.576;7.524;2023-09-12T06:43:51;98187.44;;;24.50;59.13
67818;BME280;54614;47.576;7.524;2023-09-12T06:46:18;98187.41;;;24.74;58.09
67818;BME280;54614;47.576;7.524;2023-09-12T06:48:47;98185.31;;;24.77;57.70
67818;BME280;54614;47.576;7.524;2023-09-12T06:51:16;98189.59;;;24.84;57.52
67818;BME280;54614;47.576;7.524;2023-09-12T06:53:42;98199.66;;;24.89;56.80
67818;BME280;54614;47.576;7.524;2023-09-12T06:56:09;98198.41;;;24.91;56.66
67818;BME280;54614;47.576;7.524;2023-09-12T06:58:36;98201.06;;;24.98;56.54
67818;BME280;54614;47.576;7.524;2023-09-12T07:01:06;98188.81;;;25.02;56.42
67818;BME280;54614;47.576;7.524;2023-09-12T07:03:35;98188.56;;;25.03;56.49
67818;BME280;54614;47.576;7.524;2023-09-12T07:06:02;98188.72;;;25.09;56.34
67818;BME280;54614;47.576;7.524;2023-09-12T07:08:32;98190.75;;;25.13;56.12
67818;BME280;54614;47.576;7.524;2023-09-12T07:10:59;98191.13;;;25.17;56.17
67818;BME280;54614;47.576;7.524;2023-09-12T07:13:32;98190.44;;;25.21;56.16
67818;BME280;54614;47.576;7.524;2023-09-12T07:15:58;98186.25;;;25.25;56.00
67818;BME280;54614;47.576;7.524;2023-09-12T07:18:24;98197.03;;;25.25;55.94
67818;BME280;54614;47.576;7.524;2023-09-12T07:21:01;98198.88;;;25.25;56.05
67818;BME280;54614;47.576;7.524;2023-09-12T07:23:28;98200.53;;;25.26;56.30
67818;BME280;54614;47.576;7.524;2023-09-12T07:25:55;98204.28;;;25.25;56.06
67818;BME280;54614;47.576;7.524;2023-09-12T07:28:24;98203.81;;;25.28;56.08
67818;BME280;54614;47.576;7.524;2023-09-12T07:30:50;98211.44;;;25.31;56.06
67818;BME280;54614;47.576;7.524;2023-09-12T07:33:16;98203.75;;;25.34;56.23
67818;BME280;54614;47.576;7.524;2023-09-12T07:35:42;98207.03;;;25.36;56.02
67818;BME280;54614;47.576;7.524;2023-09-12T07:38:08;98204.94;;;25.38;56.09
67818;BME280;54614;47.576;7.524;2023-09-12T07:40:34;98202.25;;;25.38;55.94
67818;BME280;54614;47.576;7.524;2023-09-12T07:43:00;98194.38;;;25.37;56.10
67818;BME280;54614;47.576;7.524;2023-09-12T07:45:27;98200.97;;;25.41;56.09
67818;BME280;54614;47.576;7.524;2023-09-12T07:47:53;98197.81;;;25.44;55.74
67818;BME280;54614;47.576;7.524;2023-09-12T07:50:19;98206.72;;;25.45;55.93
67818;BME280;54614;47.576;7.524;2023-09-12T07:52:46;98205.44;;;25.47;55.67
67818;BME280;54614;47.576;7.524;2023-09-12T07:55:12;98207.69;;;25.50;55.70
67818;BME280;54614;47.576;7.524;2023-09-12T07:57:38;98200.66;;;25.49;55.86
67818;BME280;54614;47.576;7.524;2023-09-12T08:00:05;98200.88;;;25.48;55.87
67818;BME280;54614;47.576;7.524;2023-09-12T08:02:35;98207.53;;;25.45;55.83
67818;BME280;54614;47.576;7.524;2023-09-12T08:05:01;98197.16;;;25.49;55.95
67818;BME280;54614;47.576;7.524;2023-09-12T08:07:27;98211.19;;;25.51;55.72
67818;BME280;54614;47.576;7.524;2023-09-12T08:09:55;98205.38;;;25.54;55.49
67818;BME280;54614;47.576;7.524;2023-09-12T08:12:24;98208.06;;;25.54;55.59
67818;BME280;54614;47.576;7.524;2023-09-12T08:14:50;98205.13;;;25.55;55.53
67818;BME280;54614;47.576;7.524;2023-09-12T08:17:16;98203.03;;;25.57;55.61
67818;BME280;54614;47.576;7.524;2023-09-12T08:19:43;98210.91;;;25.59;55.70
67818;BME280;54614;47.576;7.524;2023-09-12T08:22:10;98204.91;;;25.57;55.78
67818;BME280;54614;47.576;7.524;2023-09-12T08:24:36;98214.41;;;25.59;55.73
67818;BME280;54614;47.576;7.524;2023-09-12T08:27:03;98210.06;;;25.58;55.63
67818;BME280;54614;47.576;7.524;2023-09-12T08:29:29;98216.88;;;25.61;55.79
67818;BME280;54614;47.576;7.524;2023-09-12T08:31:57;98215.81;;;25.62;55.75
67818;BME280;54614;47.576;7.524;2023-09-12T08:34:23;98209.03;;;25.59;55.79
67818;BME280;54614;47.576;7.524;2023-09-12T08:36:49;98213.34;;;25.60;55.72
67818;BME280;54614;47.576;7.524;2023-09-12T08:39:18;98218.28;;;25.63;55.47
67818;BME280;54614;47.576;7.524;2023-09-12T08:41:49;98215.59;;;25.63;55.95
67818;BME280;54614;47.576;7.524;2023-09-12T08:44:15;98215.81;;;25.62;55.95
67818;BME280;54614;47.576;7.524;2023-09-12T08:46:45;98201.53;;;25.61;55.68
67818;BME280;54614;47.576;7.524;2023-09-12T08:49:11;98202.34;;;25.62;55.99
67818;BME280;54614;47.576;7.524;2023-09-12T08:51:41;98214.56;;;25.64;55.91
67818;BME280;54614;47.576;7.524;2023-09-12T08:54:10;98198.38;;;25.64;55.84
67818;BME280;54614;47.576;7.524;2023-09-12T08:56:40;98192.81;;;25.66;55.41
67818;BME280;54614;47.576;7.524;2023-09-12T08:59:08;98193.41;;;25.68;55.28
67818;BME280;54614;47.576;7.524;2023-09-12T09:01:35;98187.41;;;25.66;55.60
67818;BME280;54614;47.576;7.524;2023-09-12T09:04:03;98196.91;;;25.68;55.65
67818;BME280;54614;47.576;7.524;2023-09-12T09:06:31;98195.63;;;25.71;55.66
67818;BME280;54614;47.576;7.524;2023-09-12T09:09:00;98189.19;;;25.72;55.58
67818;BME280;54614;47.576;7.524;2023-09-12T09:11:27;98194.34;;;25.74;55.46
67818;BME280;54614;47.576;7.524;2023-09-12T09:13:55;98189.78;;;25.74;55.41
67818;BME280;54614;47.576;7.524;2023-09-12T09:16:23;98200.34;;;25.76;55.54
67818;BME280;54614;47.576;7.524;2023-09-12T09:18:58;98201.97;;;25.77;55.43
67818;BME280;54614;47.576;7.524;2023-09-12T09:21:27;98197.19;;;25.79;55.58
67818;BME280;54614;47.576;7.524;2023-09-12T09:23:54;98191.22;;;25.77;55.19
67818;BME280;54614;47.576;7.524;2023-09-12T09:26:21;98198.00;;;25.79;55.37
67818;BME280;54614;47.576;7.524;2023-09-12T09:29:12;98195.69;;;25.83;55.16
67818;BME280;54614;47.576;7.524;2023-09-12T09:31:42;98190.88;;;25.85;55.01
67818;BME280;54614;47.576;7.524;2023-09-12T09:34:16;98189.59;;;25.87;54.90
67818;BME280;54614;47.576;7.524;2023-09-12T09:36:44;98193.13;;;25.88;55.06
67818;BME280;54614;47.576;7.524;2023-09-12T09:39:13;98190.19;;;25.89;54.76
67818;BME280;54614;47.576;7.524;2023-09-12T09:41:39;98185.63;;;25.90;54.95
67818;BME280;54614;47.576;7.524;2023-09-12T09:44:08;98187.28;;;25.91;54.87
67818;BME280;54614;47.576;7.524;2023-09-12T09:46:36;98182.94;;;25.90;54.75
67818;BME280;54614;47.576;7.524;2023-09-12T09:49:03;98182.47;;;25.93;54.66
67818;BME280;54614;47.576;7.524;2023-09-12T09:51:30;98177.44;;;25.96;54.43
67818;BME280;54614;47.576;7.524;2023-09-12T09:53:59;98182.19;;;26.01;54.42
67818;BME280;54614;47.576;7.524;2023-09-12T09:56:26;98169.06;;;26.05;54.08
67818;BME280;54614;47.576;7.524;2023-09-12T09:58:54;98167.19;;;26.05;54.14
67818;BME280;54614;47.576;7.524;2023-09-12T10:01:27;98159.69;;;26.07;54.12
67818;BME280;54614;47.576;7.524;2023-09-12T10:03:58;98164.38;;;26.12;54.04
67818;BME280;54614;47.576;7.524;2023-09-12T10:06:24;98167.66;;;26.14;53.83
67818;BME280;54614;47.576;7.524;2023-09-12T10:08:53;98160.16;;;26.16;54.06
67818;BME280;54614;47.576;7.524;2023-09-12T10:11:26;98158.66;;;26.20;53.78
67818;BME280;54614;47.576;7.524;2023-09-12T10:13:58;98160.06;;;26.22;53.75
67818;BME280;54614;47.576;7.524;2023-09-12T10:16:30;98150.09;;;26.23;53.91
67818;BME280;54614;47.576;7.524;2023-09-12T10:19:13;98151.97;;;26.22;53.93
67818;BME280;54614;47.576;7.524;2023-09-12T10:21:54;98155.13;;;26.19;53.96
67818;BME280;54614;47.576;7.524;2023-09-12T10:24:25;98154.66;;;26.22;53.97
67818;BME280;54614;47.576;7.524;2023-09-12T10:26:54;98150.94;;;26.23;53.76
67818;BME280;54614;47.576;7.524;2023-09-12T10:29:22;98150.47;;;26.26;53.85
67818;BME280;54614;47.576;7.524;2023-09-12T10:31:49;98146.47;;;26.29;53.58
67818;BME280;54614;47.576;7.524;2023-09-12T10:34:16;98142.72;;;26.30;53.89
67818;BME280;54614;47.576;7.524;2023-09-12T10:36:43;98138.97;;;26.31;53.58
67818;BME280;54614;47.576;7.524;2023-09-12T10:39:11;98138.78;;;26.32;53.64
67818;BME280;54614;47.576;7.524;2023-09-12T10:41:39;98143.09;;;26.33;53.76
67818;BME280;54614;47.576;7.524;2023-09-12T10:44:25;98138.16;;;26.30;53.73
67818;BME280;54614;47.576;7.524;2023-09-12T10:46:52;98139.59;;;26.33;53.54
67818;BME280;54614;47.576;7.524;2023-09-12T10:49:20;98142.88;;;26.35;53.64
67818;BME280;54614;47.576;7.524;2023-09-12T10:51:47;98142.66;;;26.37;53.68
67818;BME280;54614;47.576;7.524;2023-09-12T10:54:16;98132.91;;;26.36;53.50
67818;BME280;54614;47.576;7.524;2023-09-12T10:57:11;98141.00;;;26.36;53.59
67818;BME280;54614;47.576;7.524;2023-09-12T11:02:32;98127.88;;;26.39;53.51
67818;BME280;54614;47.576;7.524;2023-09-12T11:04:59;98127.06;;;26.39;53.55
67818;BME280;54614;47.576;7.524;2023-09-12T11:10:17;98130.34;;;26.41;53.52
67818;BME280;54614;47.576;7.524;2023-09-12T11:12:51;98129.28;;;26.42;53.52
67818;BME280;54614;47.576;7.524;2023-09-12T11:15:19;98130.56;;;26.39;53.68
67818;BME280;54614;47.576;7.524;2023-09-12T11:17:50;98127.41;;;26.42;53.47
67818;BME280;54614;47.576;7.524;2023-09-12T11:20:25;98129.03;;;26.43;53.55
67818;BME280;54614;47.576;7.524;2023-09-12T11:22:51;98129.03;;;26.43;53.57
67818;BME280;54614;47.576;7.524;2023-09-12T11:25:25;98129.03;;;26.43;53.51
67818;BME280;54614;47.576;7.524;2023-09-12T11:30:22;98122.59;;;26.44;53.55
67818;BME280;54614;47.576;7.524;2023-09-12T11:32:53;98116.16;;;26.45;53.71
67818;BME280;54614;47.576;7.524;2023-09-12T11:35:24;98120.72;;;26.45;53.80
67818;BME280;54614;47.576;7.524;2023-09-12T11:37:58;98130.69;;;26.44;53.77
67818;BME280;54614;47.576;7.524;2023-09-12T11:43:05;98123.19;;;26.46;53.75
67818;BME280;54614;47.576;7.524;2023-09-12T11:45:32;98113.22;;;26.47;53.62
67818;BME280;54614;47.576;7.524;2023-09-12T11:47:58;98114.03;;;26.47;53.67
67818;BME280;54614;47.576;7.524;2023-09-12T11:50:35;98115.69;;;26.48;53.77
67818;BME280;54614;47.576;7.524;2023-09-12T11:53:11;98113.78;;;26.49;53.92
67818;BME280;54614;47.576;7.524;2023-09-12T11:55:49;98104.66;;;26.50;53.83
67818;BME280;54614;47.576;7.524;2023-09-12T11:58:18;98107.34;;;26.50;53.88
67818;BME280;54614;47.576;7.524;2023-09-12T12:00:50;98103.00;;;26.49;53.70
67818;BME280;54614;47.576;7.524;2023-09-12T12:03:18;98097.97;;;26.52;53.67
67818;BME280;54614;47.576;7.524;2023-09-12T12:05:44;98101.25;;;26.54;53.82
67818;BME280;54614;47.576;7.524;2023-09-12T12:08:11;98099.38;;;26.55;53.65
67818;BME280;54614;47.576;7.524;2023-09-12T12:10:37;98093.88;;;26.50;54.02
67818;BME280;54614;47.576;7.524;2023-09-12T12:13:27;98088.47;;;26.50;53.88
67818;BME280;54614;47.576;7.524;2023-09-12T12:15:56;98085.78;;;26.50;53.99
67818;BME280;54614;47.576;7.524;2023-09-12T12:18:22;98087.41;;;26.51;54.09
67818;BME280;54614;47.576;7.524;2023-09-12T12:20:49;98088.47;;;26.50;54.13
67818;BME280;54614;47.576;7.524;2023-09-12T12:23:15;98097.16;;;26.52;53.81
67818;BME280;54614;47.576;7.524;2023-09-12T12:25:41;98092.00;;;26.50;53.81
67818;BME280;54614;47.576;7.524;2023-09-12T12:28:08;98099.50;;;26.48;54.11
67818;BME280;54614;47.576;7.524;2023-09-12T12:30:35;98084.72;;;26.51;54.02
67818;BME280;54614;47.576;7.524;2023-09-12T12:33:11;98079.09;;;26.52;54.06
67818;BME280;54614;47.576;7.524;2023-09-12T12:35:37;98084.47;;;26.52;54.06
67818;BME280;54614;47.576;7.524;2023-09-12T12:38:04;98078.25;;;26.52;53.96
67818;BME280;54614;47.576;7.524;2023-09-12T12:40:30;98076.97;;;26.54;54.03
67818;BME280;54614;47.576;7.524;2023-09-12T12:42:56;98079.09;;;26.52;53.87
67818;BME280;54614;47.576;7.524;2023-09-12T12:45:23;98072.88;;;26.52;53.86
67818;BME280;54614;47.576;7.524;2023-09-12T12:48:00;98078.25;;;26.52;53.91
67818;BME280;54614;47.576;7.524;2023-09-12T12:50:27;98072.06;;;26.51;54.10
67818;BME280;54614;47.576;7.524;2023-09-12T12:52:53;98070.19;;;26.52;54.02
67818;BME280;54614;47.576;7.524;2023-09-12T12:55:21;98068.88;;;26.54;53.90
67818;BME280;54614;47.576;7.524;2023-09-12T12:57:51;98062.09;;;26.52;53.87
67818;BME280;54614;47.576;7.524;2023-09-12T13:00:18;98061.84;;;26.53;53.99
67818;BME280;54614;47.576;7.524;2023-09-12T13:02:45;98059.25;;;26.58;54.00
67818;BME280;54614;47.576;7.524;2023-09-12T13:05:26;98054.44;;;26.60;53.75
67818;BME280;54614;47.576;7.524;2023-09-12T13:07:53;98048.22;;;26.60;54.02
67818;BME280;54614;47.576;7.524;2023-09-12T13:10:20;98044.47;;;26.61;53.81
67818;BME280;54614;47.576;7.524;2023-09-12T13:12:47;98036.16;;;26.62;53.83
67818;BME280;54614;47.576;7.524;2023-09-12T13:15:14;98036.72;;;26.64;53.64
67818;BME280;54614;47.576;7.524;2023-09-12T13:17:44;98040.25;;;26.65;53.63
67818;BME280;54614;47.576;7.524;2023-09-12T13:20:10;98028.63;;;26.64;53.69
67818;BME280;54614;47.576;7.524;2023-09-12T13:22:37;98027.34;;;26.67;53.83
67818;BME280;54614;47.576;7.524;2023-09-12T13:25:05;98026.75;;;26.65;53.64
67818;BME280;54614;47.576;7.524;2023-09-12T13:27:31;98025.69;;;26.66;53.66